KBFM

Mobile Downtown Airport

Mobile, Alabama, USA
METAR KBFM 180842Z AUTO 00000KT 1/4SM FG VV003 18/18 A3016 RMK AO2 T01780178
Observed Flight Rules
Dec-18 @ 08:42 UTC (9 minutes ago) Instrument Flight Rules
Wind Visibility Clouds Conditions
Calm 1/4 miles
  • Vertical visibility at 300' AGL
  • Fog
Temperatures Readings
Current 18°C / 64°F
Dewpoint 18°C / 64°F
Humidity 100%
Altimeter 30.16" Hg
Pressure 1021 hPa
Elevation 20
METAR KBFM 180842Z AUTO 00000KT 1/4SM FG VV003 18/18 A3016 RMK AO2 T01780178
Observed Flight Rules
Dec-18 @ 08:42 UTC
(9 minutes ago)
LIFR
Wind Visibility
Calm 1/4 miles
Clouds
  • Vertical visibility at 300' AGL
Conditions
  • Fog
Temperature Dewpoint
18°C / 64°F 18°C / 64°F
Humidity Altimeter Pressure
100% 30.16" Hg 1021 hPa